Kota Kinabalu, Malaysia
Current Conditions -  °F | °C
As of 3:00 AM on Tuesday 23 Dec 2014 (Local Time) from WBKK Reporting Station
Broken Clouds Broken Clouds  
Wind Chill: 25°   Ceiling: 27000
Heat Index: 26°   Visibility: 6mi
Dew Point: 24°   Wind: 3mph
Humidity: 94%   Direction: 120°ESE
Pressure: 29.71"   Gusts: NA
Location:  5.97°N, 116.07°E
Report Text: WBKK 221900Z 12003KT 9999 FEW014 SCT040 BKN270 25/24 Q1006 NOSIG
Loading
Personal Weather Stations






























Interactive Weather Map New forecast layout! Learn more

10-Day Weather Forecast

Advertisements
Track Severe Weather on mobile